sensor_id;sensor_type;location;lat;lon;timestamp;P1;durP1;ratioP1;P2;durP2;ratioP2
20713;SDS011;10518;50.742;4.226;2022-10-31T00:02:20;5.43;;;2.20;;
20713;SDS011;10518;50.742;4.226;2022-10-31T00:04:45;8.40;;;2.65;;
20713;SDS011;10518;50.742;4.226;2022-10-31T00:07:11;8.10;;;2.33;;
20713;SDS011;10518;50.742;4.226;2022-10-31T00:09:36;6.05;;;3.25;;
20713;SDS011;10518;50.742;4.226;2022-10-31T00:12:02;6.75;;;2.60;;
20713;SDS011;10518;50.742;4.226;2022-10-31T00:14:28;14.05;;;3.33;;
20713;SDS011;10518;50.742;4.226;2022-10-31T00:16:54;5.65;;;2.85;;
20713;SDS011;10518;50.742;4.226;2022-10-31T00:19:19;3.88;;;2.30;;
20713;SDS011;10518;50.742;4.226;2022-10-31T00:21:45;6.25;;;2.83;;
20713;SDS011;10518;50.742;4.226;2022-10-31T00:24:10;5.88;;;2.42;;
20713;SDS011;10518;50.742;4.226;2022-10-31T00:26:36;4.18;;;2.72;;
20713;SDS011;10518;50.742;4.226;2022-10-31T00:29:02;4.68;;;2.30;;
20713;SDS011;10518;50.742;4.226;2022-10-31T00:31:28;14.25;;;3.38;;
20713;SDS011;10518;50.742;4.226;2022-10-31T00:33:54;4.07;;;2.80;;
20713;SDS011;10518;50.742;4.226;2022-10-31T00:36:20;7.32;;;2.80;;
20713;SDS011;10518;50.742;4.226;2022-10-31T00:38:46;5.03;;;2.40;;
20713;SDS011;10518;50.742;4.226;2022-10-31T00:41:13;4.30;;;2.88;;
20713;SDS011;10518;50.742;4.226;2022-10-31T00:43:41;3.72;;;2.08;;
20713;SDS011;10518;50.742;4.226;2022-10-31T00:46:07;5.80;;;2.65;;
20713;SDS011;10518;50.742;4.226;2022-10-31T00:48:32;8.50;;;2.80;;
20713;SDS011;10518;50.742;4.226;2022-10-31T00:50:58;2.90;;;2.13;;
20713;SDS011;10518;50.742;4.226;2022-10-31T00:53:24;3.35;;;2.15;;
20713;SDS011;10518;50.742;4.226;2022-10-31T00:55:49;5.13;;;2.30;;
20713;SDS011;10518;50.742;4.226;2022-10-31T00:58:15;6.57;;;2.45;;
20713;SDS011;10518;50.742;4.226;2022-10-31T01:00:41;4.20;;;2.30;;
20713;SDS011;10518;50.742;4.226;2022-10-31T01:03:06;5.47;;;2.50;;
20713;SDS011;10518;50.742;4.226;2022-10-31T01:05:32;3.40;;;2.38;;
20713;SDS011;10518;50.742;4.226;2022-10-31T01:07:58;6.43;;;2.13;;
20713;SDS011;10518;50.742;4.226;2022-10-31T01:10:23;2.75;;;2.03;;
20713;SDS011;10518;50.742;4.226;2022-10-31T01:12:49;4.32;;;2.13;;
20713;SDS011;10518;50.742;4.226;2022-10-31T01:15:16;2.53;;;1.90;;
20713;SDS011;10518;50.742;4.226;2022-10-31T01:17:44;5.05;;;2.33;;
20713;SDS011;10518;50.742;4.226;2022-10-31T01:20:10;7.05;;;2.30;;
20713;SDS011;10518;50.742;4.226;2022-10-31T01:22:37;7.05;;;3.55;;
20713;SDS011;10518;50.742;4.226;2022-10-31T01:25:03;8.82;;;2.30;;
20713;SDS011;10518;50.742;4.226;2022-10-31T01:27:29;3.90;;;1.95;;
20713;SDS011;10518;50.742;4.226;2022-10-31T01:29:56;7.53;;;1.90;;
20713;SDS011;10518;50.742;4.226;2022-10-31T01:32:21;7.53;;;2.55;;
20713;SDS011;10518;50.742;4.226;2022-10-31T01:34:47;4.47;;;2.70;;
20713;SDS011;10518;50.742;4.226;2022-10-31T01:37:12;4.60;;;2.13;;
20713;SDS011;10518;50.742;4.226;2022-10-31T01:39:38;5.15;;;1.92;;
20713;SDS011;10518;50.742;4.226;2022-10-31T01:42:04;8.20;;;2.70;;
20713;SDS011;10518;50.742;4.226;2022-10-31T01:49:26;5.22;;;2.40;;
20713;SDS011;10518;50.742;4.226;2022-10-31T01:54:34;4.05;;;2.85;;
20713;SDS011;10518;50.742;4.226;2022-10-31T01:57:03;3.40;;;2.10;;
20713;SDS011;10518;50.742;4.226;2022-10-31T01:59:32;5.93;;;2.00;;
20713;SDS011;10518;50.742;4.226;2022-10-31T02:02:04;13.18;;;2.83;;
20713;SDS011;10518;50.742;4.226;2022-10-31T02:04:30;5.07;;;2.70;;
20713;SDS011;10518;50.742;4.226;2022-10-31T02:07:00;10.68;;;3.58;;
20713;SDS011;10518;50.742;4.226;2022-10-31T02:09:30;4.13;;;2.45;;
20713;SDS011;10518;50.742;4.226;2022-10-31T02:11:59;6.82;;;2.47;;
20713;SDS011;10518;50.742;4.226;2022-10-31T02:14:25;9.00;;;2.90;;
20713;SDS011;10518;50.742;4.226;2022-10-31T02:16:53;6.72;;;2.53;;
20713;SDS011;10518;50.742;4.226;2022-10-31T02:20:10;9.20;;;2.30;;
20713;SDS011;10518;50.742;4.226;2022-10-31T02:30:23;2.80;;;2.05;;
20713;SDS011;10518;50.742;4.226;2022-10-31T02:33:05;5.90;;;2.25;;
20713;SDS011;10518;50.742;4.226;2022-10-31T02:35:53;3.97;;;1.98;;
20713;SDS011;10518;50.742;4.226;2022-10-31T02:38:39;6.20;;;1.98;;
20713;SDS011;10518;50.742;4.226;2022-10-31T02:41:15;6.53;;;2.55;;
20713;SDS011;10518;50.742;4.226;2022-10-31T02:44:00;3.83;;;2.08;;
20713;SDS011;10518;50.742;4.226;2022-10-31T02:46:54;4.00;;;1.73;;
20713;SDS011;10518;50.742;4.226;2022-10-31T02:51:52;4.18;;;2.22;;
20713;SDS011;10518;50.742;4.226;2022-10-31T02:54:23;3.72;;;2.30;;
20713;SDS011;10518;50.742;4.226;2022-10-31T02:56:50;4.63;;;2.40;;
20713;SDS011;10518;50.742;4.226;2022-10-31T02:59:32;5.70;;;2.15;;
20713;SDS011;10518;50.742;4.226;2022-10-31T03:07:23;6.88;;;2.08;;
20713;SDS011;10518;50.742;4.226;2022-10-31T03:10:10;4.35;;;2.38;;
20713;SDS011;10518;50.742;4.226;2022-10-31T03:12:39;4.68;;;2.08;;
20713;SDS011;10518;50.742;4.226;2022-10-31T03:15:23;4.60;;;2.30;;
20713;SDS011;10518;50.742;4.226;2022-10-31T03:18:04;5.38;;;2.63;;
20713;SDS011;10518;50.742;4.226;2022-10-31T03:20:40;6.20;;;2.55;;
20713;SDS011;10518;50.742;4.226;2022-10-31T03:23:12;6.03;;;2.05;;
20713;SDS011;10518;50.742;4.226;2022-10-31T03:25:40;5.03;;;2.30;;
20713;SDS011;10518;50.742;4.226;2022-10-31T03:28:08;2.75;;;2.03;;
20713;SDS011;10518;50.742;4.226;2022-10-31T03:30:37;5.50;;;2.40;;
20713;SDS011;10518;50.742;4.226;2022-10-31T03:33:06;4.13;;;2.20;;
20713;SDS011;10518;50.742;4.226;2022-10-31T03:35:35;8.93;;;3.13;;
20713;SDS011;10518;50.742;4.226;2022-10-31T03:38:05;5.38;;;2.50;;
20713;SDS011;10518;50.742;4.226;2022-10-31T03:40:32;5.22;;;2.30;;
20713;SDS011;10518;50.742;4.226;2022-10-31T03:43:00;6.68;;;1.70;;
20713;SDS011;10518;50.742;4.226;2022-10-31T03:45:32;4.15;;;2.10;;
20713;SDS011;10518;50.742;4.226;2022-10-31T03:48:05;4.25;;;2.45;;
20713;SDS011;10518;50.742;4.226;2022-10-31T03:50:36;7.63;;;2.22;;
20713;SDS011;10518;50.742;4.226;2022-10-31T03:53:25;5.90;;;2.60;;
20713;SDS011;10518;50.742;4.226;2022-10-31T03:56:07;3.25;;;1.83;;
20713;SDS011;10518;50.742;4.226;2022-10-31T03:58:39;3.95;;;2.22;;
20713;SDS011;10518;50.742;4.226;2022-10-31T04:01:13;3.50;;;2.00;;
20713;SDS011;10518;50.742;4.226;2022-10-31T04:03:42;6.20;;;2.75;;
20713;SDS011;10518;50.742;4.226;2022-10-31T04:06:10;5.85;;;3.03;;
20713;SDS011;10518;50.742;4.226;2022-10-31T04:08:40;2.58;;;2.15;;
20713;SDS011;10518;50.742;4.226;2022-10-31T04:11:10;3.17;;;2.00;;
20713;SDS011;10518;50.742;4.226;2022-10-31T04:13:38;5.35;;;2.22;;
20713;SDS011;10518;50.742;4.226;2022-10-31T04:16:05;2.97;;;2.22;;
20713;SDS011;10518;50.742;4.226;2022-10-31T04:18:31;3.17;;;2.00;;
20713;SDS011;10518;50.742;4.226;2022-10-31T04:21:04;3.35;;;2.15;;
20713;SDS011;10518;50.742;4.226;2022-10-31T04:23:31;4.72;;;2.35;;
20713;SDS011;10518;50.742;4.226;2022-10-31T04:25:58;4.03;;;1.70;;
20713;SDS011;10518;50.742;4.226;2022-10-31T04:28:23;4.05;;;1.88;;
20713;SDS011;10518;50.742;4.226;2022-10-31T04:30:49;3.58;;;2.00;;
20713;SDS011;10518;50.742;4.226;2022-10-31T04:33:15;5.20;;;2.45;;
20713;SDS011;10518;50.742;4.226;2022-10-31T04:35:40;3.67;;;2.08;;
20713;SDS011;10518;50.742;4.226;2022-10-31T04:38:06;3.78;;;1.90;;
20713;SDS011;10518;50.742;4.226;2022-10-31T04:40:31;6.07;;;2.22;;
20713;SDS011;10518;50.742;4.226;2022-10-31T04:42:57;2.03;;;1.55;;
20713;SDS011;10518;50.742;4.226;2022-10-31T04:45:22;2.25;;;1.63;;
20713;SDS011;10518;50.742;4.226;2022-10-31T04:47:48;3.50;;;1.45;;
20713;SDS011;10518;50.742;4.226;2022-10-31T04:50:13;2.78;;;2.00;;
20713;SDS011;10518;50.742;4.226;2022-10-31T04:52:40;4.63;;;2.47;;
20713;SDS011;10518;50.742;4.226;2022-10-31T04:55:07;11.25;;;2.63;;
20713;SDS011;10518;50.742;4.226;2022-10-31T04:57:39;6.28;;;2.65;;
20713;SDS011;10518;50.742;4.226;2022-10-31T05:00:06;4.07;;;1.83;;
20713;SDS011;10518;50.742;4.226;2022-10-31T05:02:32;7.57;;;2.33;;
20713;SDS011;10518;50.742;4.226;2022-10-31T05:04:57;3.45;;;1.80;;
20713;SDS011;10518;50.742;4.226;2022-10-31T05:07:23;5.50;;;2.08;;
20713;SDS011;10518;50.742;4.226;2022-10-31T05:09:48;5.32;;;1.95;;
20713;SDS011;10518;50.742;4.226;2022-10-31T05:12:14;3.67;;;2.45;;
20713;SDS011;10518;50.742;4.226;2022-10-31T05:14:40;3.65;;;2.08;;
20713;SDS011;10518;50.742;4.226;2022-10-31T05:17:05;4.65;;;1.58;;
20713;SDS011;10518;50.742;4.226;2022-10-31T05:19:31;8.35;;;2.38;;
20713;SDS011;10518;50.742;4.226;2022-10-31T05:21:56;4.20;;;1.92;;
20713;SDS011;10518;50.742;4.226;2022-10-31T05:24:22;4.53;;;1.88;;
20713;SDS011;10518;50.742;4.226;2022-10-31T05:26:48;9.68;;;1.67;;
20713;SDS011;10518;50.742;4.226;2022-10-31T05:29:14;7.50;;;2.45;;
20713;SDS011;10518;50.742;4.226;2022-10-31T05:31:39;3.35;;;1.83;;
20713;SDS011;10518;50.742;4.226;2022-10-31T05:34:05;6.05;;;2.33;;
20713;SDS011;10518;50.742;4.226;2022-10-31T05:36:30;8.13;;;2.80;;
20713;SDS011;10518;50.742;4.226;2022-10-31T05:38:56;4.60;;;2.78;;
20713;SDS011;10518;50.742;4.226;2022-10-31T05:41:21;2.35;;;2.00;;
20713;SDS011;10518;50.742;4.226;2022-10-31T05:43:47;3.20;;;1.98;;
20713;SDS011;10518;50.742;4.226;2022-10-31T05:46:13;4.13;;;2.28;;
20713;SDS011;10518;50.742;4.226;2022-10-31T05:48:38;4.00;;;2.20;;
20713;SDS011;10518;50.742;4.226;2022-10-31T05:51:04;4.65;;;2.65;;
20713;SDS011;10518;50.742;4.226;2022-10-31T05:53:29;2.50;;;1.75;;
20713;SDS011;10518;50.742;4.226;2022-10-31T05:55:55;7.13;;;2.53;;
20713;SDS011;10518;50.742;4.226;2022-10-31T05:58:20;3.78;;;2.20;;
20713;SDS011;10518;50.742;4.226;2022-10-31T06:00:46;5.13;;;2.25;;
20713;SDS011;10518;50.742;4.226;2022-10-31T06:03:11;4.82;;;2.80;;
20713;SDS011;10518;50.742;4.226;2022-10-31T06:05:37;2.75;;;2.03;;
20713;SDS011;10518;50.742;4.226;2022-10-31T06:08:03;13.60;;;2.97;;
20713;SDS011;10518;50.742;4.226;2022-10-31T06:10:28;16.00;;;3.28;;
20713;SDS011;10518;50.742;4.226;2022-10-31T06:12:54;7.82;;;2.90;;
20713;SDS011;10518;50.742;4.226;2022-10-31T06:15:20;7.32;;;2.67;;
20713;SDS011;10518;50.742;4.226;2022-10-31T06:17:45;4.85;;;2.83;;
20713;SDS011;10518;50.742;4.226;2022-10-31T06:20:11;5.85;;;2.50;;
20713;SDS011;10518;50.742;4.226;2022-10-31T06:22:37;7.85;;;2.83;;
20713;SDS011;10518;50.742;4.226;2022-10-31T06:25:02;8.20;;;3.70;;
20713;SDS011;10518;50.742;4.226;2022-10-31T06:27:28;4.88;;;3.15;;
20713;SDS011;10518;50.742;4.226;2022-10-31T06:29:54;4.18;;;2.95;;
20713;SDS011;10518;50.742;4.226;2022-10-31T06:32:19;7.25;;;3.63;;
20713;SDS011;10518;50.742;4.226;2022-10-31T06:34:45;3.30;;;2.42;;
20713;SDS011;10518;50.742;4.226;2022-10-31T06:37:13;5.45;;;2.38;;
20713;SDS011;10518;50.742;4.226;2022-10-31T06:39:39;6.15;;;2.78;;
20713;SDS011;10518;50.742;4.226;2022-10-31T06:42:05;6.03;;;3.00;;
20713;SDS011;10518;50.742;4.226;2022-10-31T06:44:31;4.90;;;2.55;;
20713;SDS011;10518;50.742;4.226;2022-10-31T06:46:57;5.68;;;2.67;;
20713;SDS011;10518;50.742;4.226;2022-10-31T06:49:22;3.60;;;2.50;;
20713;SDS011;10518;50.742;4.226;2022-10-31T06:51:48;4.40;;;2.47;;
20713;SDS011;10518;50.742;4.226;2022-10-31T06:54:14;2.97;;;2.42;;
20713;SDS011;10518;50.742;4.226;2022-10-31T06:56:40;6.03;;;2.85;;
20713;SDS011;10518;50.742;4.226;2022-10-31T06:59:05;5.47;;;2.80;;
20713;SDS011;10518;50.742;4.226;2022-10-31T07:01:31;7.40;;;3.17;;
20713;SDS011;10518;50.742;4.226;2022-10-31T07:03:57;5.90;;;2.60;;
20713;SDS011;10518;50.742;4.226;2022-10-31T07:06:22;4.07;;;2.30;;
20713;SDS011;10518;50.742;4.226;2022-10-31T07:08:48;3.53;;;2.08;;
20713;SDS011;10518;50.742;4.226;2022-10-31T07:11:13;5.05;;;2.58;;
20713;SDS011;10518;50.742;4.226;2022-10-31T07:13:39;9.38;;;2.58;;
20713;SDS011;10518;50.742;4.226;2022-10-31T07:16:05;3.47;;;2.10;;
20713;SDS011;10518;50.742;4.226;2022-10-31T07:18:31;3.45;;;2.10;;
20713;SDS011;10518;50.742;4.226;2022-10-31T07:20:57;4.88;;;2.75;;
20713;SDS011;10518;50.742;4.226;2022-10-31T07:23:22;5.28;;;2.70;;
20713;SDS011;10518;50.742;4.226;2022-10-31T07:25:48;4.78;;;2.33;;
20713;SDS011;10518;50.742;4.226;2022-10-31T07:28:19;7.03;;;3.00;;
20713;SDS011;10518;50.742;4.226;2022-10-31T07:30:48;8.60;;;3.67;;
20713;SDS011;10518;50.742;4.226;2022-10-31T07:33:18;11.15;;;2.97;;
20713;SDS011;10518;50.742;4.226;2022-10-31T07:35:45;5.40;;;3.20;;
20713;SDS011;10518;50.742;4.226;2022-10-31T07:38:11;9.73;;;3.53;;
20713;SDS011;10518;50.742;4.226;2022-10-31T07:40:39;11.02;;;3.85;;
20713;SDS011;10518;50.742;4.226;2022-10-31T07:43:05;9.63;;;2.90;;
20713;SDS011;10518;50.742;4.226;2022-10-31T07:45:31;8.40;;;3.90;;
20713;SDS011;10518;50.742;4.226;2022-10-31T07:47:56;10.23;;;3.50;;
20713;SDS011;10518;50.742;4.226;2022-10-31T07:50:23;5.45;;;3.50;;
20713;SDS011;10518;50.742;4.226;2022-10-31T07:53:27;7.93;;;2.83;;
20713;SDS011;10518;50.742;4.226;2022-10-31T07:55:45;4.82;;;3.22;;
20713;SDS011;10518;50.742;4.226;2022-10-31T07:58:12;5.78;;;2.85;;
20713;SDS011;10518;50.742;4.226;2022-10-31T08:00:40;6.40;;;3.20;;
20713;SDS011;10518;50.742;4.226;2022-10-31T08:03:10;7.63;;;3.15;;
20713;SDS011;10518;50.742;4.226;2022-10-31T08:05:37;4.53;;;2.58;;
20713;SDS011;10518;50.742;4.226;2022-10-31T08:08:05;4.55;;;2.92;;
20713;SDS011;10518;50.742;4.226;2022-10-31T08:10:31;5.07;;;2.83;;
20713;SDS011;10518;50.742;4.226;2022-10-31T08:12:59;4.90;;;2.90;;
20713;SDS011;10518;50.742;4.226;2022-10-31T08:15:26;3.88;;;2.55;;
20713;SDS011;10518;50.742;4.226;2022-10-31T08:17:52;5.65;;;3.03;;
20713;SDS011;10518;50.742;4.226;2022-10-31T08:20:18;5.82;;;3.13;;
20713;SDS011;10518;50.742;4.226;2022-10-31T08:22:51;6.35;;;3.00;;
20713;SDS011;10518;50.742;4.226;2022-10-31T08:25:18;4.45;;;2.88;;
20713;SDS011;10518;50.742;4.226;2022-10-31T08:27:47;6.03;;;3.55;;
20713;SDS011;10518;50.742;4.226;2022-10-31T08:30:14;8.23;;;2.92;;
20713;SDS011;10518;50.742;4.226;2022-10-31T08:32:40;5.72;;;3.22;;
20713;SDS011;10518;50.742;4.226;2022-10-31T08:35:05;8.30;;;4.22;;
20713;SDS011;10518;50.742;4.226;2022-10-31T08:37:31;6.50;;;2.90;;
20713;SDS011;10518;50.742;4.226;2022-10-31T08:39:57;6.97;;;3.03;;
20713;SDS011;10518;50.742;4.226;2022-10-31T08:42:22;6.85;;;3.45;;
20713;SDS011;10518;50.742;4.226;2022-10-31T08:44:48;5.85;;;3.78;;
20713;SDS011;10518;50.742;4.226;2022-10-31T08:47:13;9.18;;;3.45;;
20713;SDS011;10518;50.742;4.226;2022-10-31T08:49:39;5.47;;;3.65;;
20713;SDS011;10518;50.742;4.226;2022-10-31T08:52:04;7.90;;;3.80;;
20713;SDS011;10518;50.742;4.226;2022-10-31T08:54:30;6.00;;;3.40;;
20713;SDS011;10518;50.742;4.226;2022-10-31T08:56:55;6.53;;;3.72;;
20713;SDS011;10518;50.742;4.226;2022-10-31T08:59:21;7.13;;;3.63;;
20713;SDS011;10518;50.742;4.226;2022-10-31T09:01:47;5.18;;;3.00;;
20713;SDS011;10518;50.742;4.226;2022-10-31T09:04:12;7.10;;;3.95;;
20713;SDS011;10518;50.742;4.226;2022-10-31T09:06:38;9.13;;;3.75;;
20713;SDS011;10518;50.742;4.226;2022-10-31T09:09:03;11.48;;;4.13;;
20713;SDS011;10518;50.742;4.226;2022-10-31T09:11:29;6.63;;;3.63;;
20713;SDS011;10518;50.742;4.226;2022-10-31T09:13:56;10.50;;;3.75;;
20713;SDS011;10518;50.742;4.226;2022-10-31T09:16:21;6.55;;;3.40;;
20713;SDS011;10518;50.742;4.226;2022-10-31T09:18:47;6.20;;;3.38;;
20713;SDS011;10518;50.742;4.226;2022-10-31T09:21:12;6.75;;;3.03;;
20713;SDS011;10518;50.742;4.226;2022-10-31T09:23:38;6.55;;;3.03;;
20713;SDS011;10518;50.742;4.226;2022-10-31T09:26:03;6.47;;;3.30;;
20713;SDS011;10518;50.742;4.226;2022-10-31T09:28:29;5.70;;;3.22;;
20713;SDS011;10518;50.742;4.226;2022-10-31T09:30:56;4.95;;;3.33;;
20713;SDS011;10518;50.742;4.226;2022-10-31T09:33:22;7.18;;;3.53;;
20713;SDS011;10518;50.742;4.226;2022-10-31T09:35:47;4.18;;;3.13;;
20713;SDS011;10518;50.742;4.226;2022-10-31T09:38:14;3.47;;;2.63;;
20713;SDS011;10518;50.742;4.226;2022-10-31T09:43:49;3.97;;;2.33;;
20713;SDS011;10518;50.742;4.226;2022-10-31T09:46:28;3.25;;;2.00;;
20713;SDS011;10518;50.742;4.226;2022-10-31T09:51:54;3.10;;;2.08;;
20713;SDS011;10518;50.742;4.226;2022-10-31T09:54:32;6.00;;;2.40;;
20713;SDS011;10518;50.742;4.226;2022-10-31T09:57:10;5.43;;;2.70;;
20713;SDS011;10518;50.742;4.226;2022-10-31T09:59:39;3.90;;;2.35;;
20713;SDS011;10518;50.742;4.226;2022-10-31T10:04:47;6.95;;;2.15;;
20713;SDS011;10518;50.742;4.226;2022-10-31T10:09:55;6.82;;;3.17;;
20713;SDS011;10518;50.742;4.226;2022-10-31T10:12:41;4.40;;;2.50;;
20713;SDS011;10518;50.742;4.226;2022-10-31T10:15:37;5.88;;;2.50;;
20713;SDS011;10518;50.742;4.226;2022-10-31T10:23:36;6.43;;;2.58;;
20713;SDS011;10518;50.742;4.226;2022-10-31T10:26:40;5.63;;;3.17;;
20713;SDS011;10518;50.742;4.226;2022-10-31T10:31:47;4.28;;;2.63;;
20713;SDS011;10518;50.742;4.226;2022-10-31T10:34:18;4.47;;;2.38;;
20713;SDS011;10518;50.742;4.226;2022-10-31T10:39:27;5.57;;;2.35;;
20713;SDS011;10518;50.742;4.226;2022-10-31T10:41:57;6.07;;;2.92;;
20713;SDS011;10518;50.742;4.226;2022-10-31T10:44:43;4.32;;;2.85;;
20713;SDS011;10518;50.742;4.226;2022-10-31T10:47:33;9.13;;;3.40;;
20713;SDS011;10518;50.742;4.226;2022-10-31T10:50:18;5.07;;;2.85;;
20713;SDS011;10518;50.742;4.226;2022-10-31T10:53:09;6.03;;;2.80;;
20713;SDS011;10518;50.742;4.226;2022-10-31T10:56:16;6.82;;;4.18;;
20713;SDS011;10518;50.742;4.226;2022-10-31T10:58:48;7.25;;;3.50;;
20713;SDS011;10518;50.742;4.226;2022-10-31T11:01:14;5.38;;;3.45;;
20713;SDS011;10518;50.742;4.226;2022-10-31T11:03:40;5.30;;;2.72;;
20713;SDS011;10518;50.742;4.226;2022-10-31T11:06:16;6.47;;;3.00;;
20713;SDS011;10518;50.742;4.226;2022-10-31T11:08:46;11.75;;;3.65;;
20713;SDS011;10518;50.742;4.226;2022-10-31T11:13:50;6.82;;;3.17;;
20713;SDS011;10518;50.742;4.226;2022-10-31T11:18:51;4.95;;;2.63;;
20713;SDS011;10518;50.742;4.226;2022-10-31T11:21:21;10.85;;;2.47;;
20713;SDS011;10518;50.742;4.226;2022-10-31T11:24:02;6.88;;;2.72;;
20713;SDS011;10518;50.742;4.226;2022-10-31T11:26:28;4.60;;;2.67;;
20713;SDS011;10518;50.742;4.226;2022-10-31T11:28:57;4.88;;;3.15;;
20713;SDS011;10518;50.742;4.226;2022-10-31T11:31:24;5.97;;;3.00;;
20713;SDS011;10518;50.742;4.226;2022-10-31T11:33:53;4.68;;;2.53;;
20713;SDS011;10518;50.742;4.226;2022-10-31T11:36:31;7.28;;;3.58;;
20713;SDS011;10518;50.742;4.226;2022-10-31T11:39:03;6.45;;;2.70;;
20713;SDS011;10518;50.742;4.226;2022-10-31T11:41:38;9.10;;;3.03;;
20713;SDS011;10518;50.742;4.226;2022-10-31T11:44:25;8.88;;;2.92;;
20713;SDS011;10518;50.742;4.226;2022-10-31T11:46:55;9.80;;;3.10;;
20713;SDS011;10518;50.742;4.226;2022-10-31T11:49:57;9.98;;;3.28;;
20713;SDS011;10518;50.742;4.226;2022-10-31T11:52:22;4.85;;;2.20;;
20713;SDS011;10518;50.742;4.226;2022-10-31T11:57:45;6.82;;;2.72;;
20713;SDS011;10518;50.742;4.226;2022-10-31T12:00:22;5.20;;;3.22;;
20713;SDS011;10518;50.742;4.226;2022-10-31T12:05:47;5.70;;;2.80;;
20713;SDS011;10518;50.742;4.226;2022-10-31T12:08:17;5.13;;;2.63;;
20713;SDS011;10518;50.742;4.226;2022-10-31T12:13:59;5.43;;;2.95;;
20713;SDS011;10518;50.742;4.226;2022-10-31T12:24:38;6.07;;;2.72;;
20713;SDS011;10518;50.742;4.226;2022-10-31T12:40:44;5.95;;;2.60;;
20713;SDS011;10518;50.742;4.226;2022-10-31T12:43:45;5.35;;;2.17;;
20713;SDS011;10518;50.742;4.226;2022-10-31T12:54:50;6.68;;;2.58;;
20713;SDS011;10518;50.742;4.226;2022-10-31T12:57:48;7.50;;;2.20;;
20713;SDS011;10518;50.742;4.226;2022-10-31T13:00:18;3.83;;;1.85;;
20713;SDS011;10518;50.742;4.226;2022-10-31T13:05:17;3.28;;;1.70;;
20713;SDS011;10518;50.742;4.226;2022-10-31T13:07:48;3.00;;;2.22;;
20713;SDS011;10518;50.742;4.226;2022-10-31T13:10:20;5.25;;;1.90;;
20713;SDS011;10518;50.742;4.226;2022-10-31T13:12:53;2.70;;;1.80;;
20713;SDS011;10518;50.742;4.226;2022-10-31T13:15:24;3.83;;;2.33;;
20713;SDS011;10518;50.742;4.226;2022-10-31T13:17:57;7.18;;;2.15;;
20713;SDS011;10518;50.742;4.226;2022-10-31T13:25:44;5.35;;;2.22;;
20713;SDS011;10518;50.742;4.226;2022-10-31T13:28:29;7.07;;;2.72;;
20713;SDS011;10518;50.742;4.226;2022-10-31T13:31:09;3.97;;;1.83;;
20713;SDS011;10518;50.742;4.226;2022-10-31T13:33:39;8.77;;;2.13;;
20713;SDS011;10518;50.742;4.226;2022-10-31T13:39:02;6.80;;;3.22;;
20713;SDS011;10518;50.742;4.226;2022-10-31T13:41:43;4.45;;;1.85;;
20713;SDS011;10518;50.742;4.226;2022-10-31T13:44:21;4.90;;;1.90;;
20713;SDS011;10518;50.742;4.226;2022-10-31T13:46:49;4.40;;;1.83;;
20713;SDS011;10518;50.742;4.226;2022-10-31T13:51:53;2.78;;;2.13;;
20713;SDS011;10518;50.742;4.226;2022-10-31T13:54:32;5.75;;;2.22;;
20713;SDS011;10518;50.742;4.226;2022-10-31T13:56:59;2.90;;;1.77;;
20713;SDS011;10518;50.742;4.226;2022-10-31T13:59:28;3.50;;;1.80;;
20713;SDS011;10518;50.742;4.226;2022-10-31T14:01:58;4.30;;;1.70;;
20713;SDS011;10518;50.742;4.226;2022-10-31T14:07:05;5.05;;;2.40;;
20713;SDS011;10518;50.742;4.226;2022-10-31T14:09:53;3.63;;;1.40;;
20713;SDS011;10518;50.742;4.226;2022-10-31T14:15:26;8.38;;;2.53;;
20713;SDS011;10518;50.742;4.226;2022-10-31T14:26:16;5.90;;;1.92;;
20713;SDS011;10518;50.742;4.226;2022-10-31T14:28:52;4.13;;;1.63;;
20713;SDS011;10518;50.742;4.226;2022-10-31T14:31:36;3.03;;;1.50;;
20713;SDS011;10518;50.742;4.226;2022-10-31T14:45:05;6.22;;;1.50;;
20713;SDS011;10518;50.742;4.226;2022-10-31T14:47:45;4.15;;;1.70;;
20713;SDS011;10518;50.742;4.226;2022-10-31T14:52:57;7.75;;;1.92;;
20713;SDS011;10518;50.742;4.226;2022-10-31T14:55:27;9.25;;;1.95;;
20713;SDS011;10518;50.742;4.226;2022-10-31T14:57:58;3.15;;;1.65;;
20713;SDS011;10518;50.742;4.226;2022-10-31T15:00:26;2.75;;;2.10;;
20713;SDS011;10518;50.742;4.226;2022-10-31T15:03:16;5.43;;;1.63;;
20713;SDS011;10518;50.742;4.226;2022-10-31T15:05:52;3.92;;;1.33;;
20713;SDS011;10518;50.742;4.226;2022-10-31T15:11:09;3.08;;;1.52;;
20713;SDS011;10518;50.742;4.226;2022-10-31T15:13:40;4.20;;;1.80;;
20713;SDS011;10518;50.742;4.226;2022-10-31T15:16:10;4.53;;;1.80;;
20713;SDS011;10518;50.742;4.226;2022-10-31T15:18:38;3.83;;;1.60;;
20713;SDS011;10518;50.742;4.226;2022-10-31T15:21:15;4.88;;;2.33;;
20713;SDS011;10518;50.742;4.226;2022-10-31T15:23:41;3.05;;;1.50;;
20713;SDS011;10518;50.742;4.226;2022-10-31T15:26:11;2.88;;;1.70;;
20713;SDS011;10518;50.742;4.226;2022-10-31T15:28:42;3.13;;;1.70;;
20713;SDS011;10518;50.742;4.226;2022-10-31T15:31:17;3.72;;;1.90;;
20713;SDS011;10518;50.742;4.226;2022-10-31T15:33:45;8.13;;;2.08;;
20713;SDS011;10518;50.742;4.226;2022-10-31T15:36:20;10.27;;;2.30;;
20713;SDS011;10518;50.742;4.226;2022-10-31T15:38:46;5.03;;;1.90;;
20713;SDS011;10518;50.742;4.226;2022-10-31T15:41:20;10.40;;;2.25;;
20713;SDS011;10518;50.742;4.226;2022-10-31T15:43:57;4.53;;;1.83;;
20713;SDS011;10518;50.742;4.226;2022-10-31T15:46:27;5.53;;;2.22;;
20713;SDS011;10518;50.742;4.226;2022-10-31T15:48:53;8.40;;;1.88;;
20713;SDS011;10518;50.742;4.226;2022-10-31T15:51:30;6.00;;;1.92;;
20713;SDS011;10518;50.742;4.226;2022-10-31T15:53:58;10.73;;;1.85;;
20713;SDS011;10518;50.742;4.226;2022-10-31T15:56:26;6.65;;;2.35;;
20713;SDS011;10518;50.742;4.226;2022-10-31T15:58:54;2.90;;;1.77;;
20713;SDS011;10518;50.742;4.226;2022-10-31T16:01:26;5.70;;;2.42;;
20713;SDS011;10518;50.742;4.226;2022-10-31T16:04:04;3.90;;;1.80;;
20713;SDS011;10518;50.742;4.226;2022-10-31T16:06:30;3.28;;;1.70;;
20713;SDS011;10518;50.742;4.226;2022-10-31T16:08:58;5.78;;;2.05;;
20713;SDS011;10518;50.742;4.226;2022-10-31T16:11:32;2.95;;;2.00;;
20713;SDS011;10518;50.742;4.226;2022-10-31T16:16:41;4.35;;;1.70;;
20713;SDS011;10518;50.742;4.226;2022-10-31T16:19:22;2.80;;;1.90;;
20713;SDS011;10518;50.742;4.226;2022-10-31T16:21:49;6.03;;;2.38;;
20713;SDS011;10518;50.742;4.226;2022-10-31T16:24:23;4.88;;;2.70;;
20713;SDS011;10518;50.742;4.226;2022-10-31T16:26:54;5.38;;;2.22;;
20713;SDS011;10518;50.742;4.226;2022-10-31T16:29:34;7.75;;;2.17;;
20713;SDS011;10518;50.742;4.226;2022-10-31T16:32:04;6.20;;;2.33;;
20713;SDS011;10518;50.742;4.226;2022-10-31T16:34:30;3.55;;;1.80;;
20713;SDS011;10518;50.742;4.226;2022-10-31T16:36:55;3.92;;;2.17;;
20713;SDS011;10518;50.742;4.226;2022-10-31T16:39:21;6.00;;;2.50;;
20713;SDS011;10518;50.742;4.226;2022-10-31T16:41:48;4.68;;;1.95;;
20713;SDS011;10518;50.742;4.226;2022-10-31T16:44:17;4.65;;;2.40;;
20713;SDS011;10518;50.742;4.226;2022-10-31T16:46:47;6.47;;;2.30;;
20713;SDS011;10518;50.742;4.226;2022-10-31T16:49:28;4.00;;;2.20;;
20713;SDS011;10518;50.742;4.226;2022-10-31T16:51:54;4.10;;;2.10;;
20713;SDS011;10518;50.742;4.226;2022-10-31T16:54:20;4.57;;;2.10;;
20713;SDS011;10518;50.742;4.226;2022-10-31T16:56:45;9.77;;;2.30;;
20713;SDS011;10518;50.742;4.226;2022-10-31T16:59:11;4.30;;;2.17;;
20713;SDS011;10518;50.742;4.226;2022-10-31T17:01:37;3.92;;;2.03;;
20713;SDS011;10518;50.742;4.226;2022-10-31T17:04:05;6.30;;;2.25;;
20713;SDS011;10518;50.742;4.226;2022-10-31T17:06:30;5.75;;;1.95;;
20713;SDS011;10518;50.742;4.226;2022-10-31T17:08:56;4.47;;;1.85;;
20713;SDS011;10518;50.742;4.226;2022-10-31T17:11:22;8.18;;;3.15;;
20713;SDS011;10518;50.742;4.226;2022-10-31T17:13:50;2.90;;;1.80;;
20713;SDS011;10518;50.742;4.226;2022-10-31T17:16:16;3.97;;;1.73;;
20713;SDS011;10518;50.742;4.226;2022-10-31T17:18:41;2.55;;;1.85;;
20713;SDS011;10518;50.742;4.226;2022-10-31T17:21:14;4.30;;;2.10;;